Station: Charters Towers Airport  

  Atmospheric Gas Attenuation - ITU Rec 676-11   ----------------- dB/100km -----------------
Date Time Temp RH % AH g/m3 Dew Point Wind Direction Speed kph Gust kph Barometer mB Rainfall Since 9am 24GHz 47GHz 76GHz 122GHz 134GHz 241GHz
08/05 12:40 27.4 40 10.53 12.6 19 22 1016.3 0 23.0 25.1 40.5 106.4 105.1 363.6
08/05 12:30 26.7 42 10.63 12.7 13 20 1016.4 0 23.2 25.5 41.2 108.3 107.2 370.9
08/05 12:20 27 42 10.81 13 15 22 1016.7 0 23.6 25.6 41.7 109.6 109.0 377.1
08/05 12:10 26.8 42 10.69 12.8 19 22 1016.8 0 23.3 25.5 41.3 108.7 107.8 373.1
08/05 12:00 26.7 43 10.88 13.1 13 20 1017 0 23.7 25.8 42.1 110.7 110.3 381.6
08/05 11:50 26.1 41 10.04 12.1 15 17 1017.1 0 22.0 24.8 39.4 103.4 101.1 349.4
08/05 11:40 25.7 44 10.53 12.5 13 19 1017.4 0 23.0 25.6 41.4 108.7 107.5 371.7
08/05 11:30 26 43 10.47 12.5 13 24 1017.5 0 22.9 25.5 41.0 107.7 106.3 367.8
08/05 11:20 25.7 42 10.06 12.1 6 6 1017.7 0 22.1 24.9 39.7 104.2 101.9 352.1
08/05 11:10 25.4 43 10.12 12.2 13 17 1017.8 0 22.2 25.1 40.0 105.2 103.0 355.9
08/05 11:00 24.8 45 10.24 12.1 11 20 1017.9 0 22.5 25.5 40.8 107.1 105.2 363.7
08/05 10:50 24.8 44 10.02 11.7 11 13 1018 0 22.0 25.1 40.0 105.0 102.6 354.4
08/05 10:40 24.8 42 9.56 11.3 7 7 1018.1 0 21.1 24.5 38.3 100.6 97.1 335.3
08/05 10:30 24.4 43 9.57 11.3 13 15 1018.2 0 21.1 24.6 38.5 101.2 97.7 337.4
08/05 10:20 24 44 9.57 11 17 20 1018.3 0 21.1 24.7 38.7 101.7 98.2 339.1
08/05 10:10 24.1 43 9.41 10.7 20 24 1018.3 0 20.8 24.4 38.1 100.0 96.2 332.0
08/05 10:00 24.1 45 9.85 11.4 13 20 1018.5 0 21.7 25.1 39.7 104.3 101.5 350.5
08/05 09:50 23.5 44 9.3 10.8 13 15 1018.6 0 20.6 24.5 38.0 99.7 95.6 330.0
08/05 09:40 22.9 45 9.2 10.6 17 20 1018.7 0 20.4 24.5 37.9 99.5 95.2 328.3
08/05 09:30 22.9 46 9.4 10.7 19 28 1018.6 0 20.8 24.8 38.6 101.4 97.6 336.7
08/05 09:20 22.9 45 9.2 10.6 19 22 1018.6 0 20.4 24.5 37.9 99.5 95.2 328.3
08/05 09:10 22.4 47 9.33 10.5 20 22 1018.3 0 20.7 24.8 38.6 101.4 97.3 335.7
08/05 09:00 22.4 47 9.33 10.5 17 22 1018.2 0 20.7 24.8 38.6 101.3 97.3 335.7
08/05 08:50 21.8 48 9.21 10.3 20 24 1018.1 0 20.5 24.8 38.5 100.9 96.6 333.1
08/05 08:40 21.8 50 9.59 10.9 20 24 1018 0 21.3 25.3 39.9 104.7 101.2 349.3
08/05 08:30 21 53 9.71 11.1 19 28 1018 0 21.6 25.7 40.7 106.9 103.7 358.0
08/05 08:20 20.7 53 9.54 11 20 28 1017.9 0 21.2 25.6 40.2 105.6 102.0 351.9
08/05 08:10 20.1 57 9.91 11.3 20 24 1017.7 0 22.0 26.3 41.9 110.2 107.4 370.9
08/05 08:00 20 59 10.2 11.8 17 28 1017.7 0 22.7 26.8 43.1 113.3 111.3 384.4
08/05 07:50 19.4 61 10.18 11.7 17 20 1017.6 0 22.7 26.9 43.4 114.0 111.9 386.3
08/05 07:40 19 63 10.27 11.8 15 20 1017.6 0 22.9 27.2 43.9 115.5 113.6 392.4
08/05 07:30 18.6 65 10.34 11.9 13 20 1017.4 0 23.0 27.4 44.4 116.8 115.1 397.6
08/05 07:20 18.2 66 10.26 11.9 13 15 1017.3 0 22.9 27.4 44.3 116.5 114.6 395.9
08/05 07:10 17.9 69 10.53 12.1 15 20 1017.2 0 23.5 27.9 45.6 119.9 118.7 409.9
08/05 07:00 17.5 71 10.58 12.2 11 17 1017.1 0 23.6 28.2 46.0 121.0 120.0 414.4
08/05 06:50 17.4 71 10.52 12.1 9 13 1017 0 23.5 28.1 45.8 120.5 119.3 412.0
08/05 06:40 17.3 71 10.46 12 9 11 1016.8 0 23.4 28.0 45.6 120.0 118.6 409.7
08/05 06:30 17.3 72 10.61 12.2 11 15 1016.6 0 23.7 28.2 46.2 121.6 120.6 416.7
08/05 06:20 17.4 72 10.67 12.3 11 13 1016.5 0 23.8 28.3 46.4 122.1 121.3 418.9
08/05 06:10 17.5 72 10.73 12.4 9 15 1016.3 0 23.9 28.4 46.6 122.6 121.9 421.2
08/05 06:00 17.6 71 10.65 12.3 13 20 1016.1 0 23.8 28.2 46.2 121.5 120.7 416.8
08/05 05:50 17.6 72 10.8 12.5 13 17 1016 0 24.1 28.4 46.8 123.2 122.7 423.9
08/05 05:40 17.6 72 10.8 12.5 9 13 1015.9 0 24.1 28.4 46.8 123.1 122.7 423.8
08/05 05:30 17.7 72 10.86 12.6 13 17 1015.8 0 24.2 28.5 47.0 123.6 123.3 426.1
08/05 05:20 17.8 71 10.78 12.6 11 15 1015.7 0 24.0 28.3 46.6 122.6 122.1 421.7
08/05 05:10 18 70 10.75 12.6 11 13 1015.6 0 23.9 28.2 46.3 121.9 121.3 419.2
08/05 05:00 18 72 11.06 12.9 11 15 1015.5 0 24.6 28.7 47.6 125.3 125.5 433.8
08/05 04:50 18 71 10.9 12.8 11 15 1015.3 0 24.3 28.5 46.9 123.5 123.3 426.2
08/05 04:40 17.9 73 11.15 13 11 13 1015.3 0 24.8 28.9 48.0 126.5 126.9 438.6
08/05 04:30 18.1 73 11.28 13.2 11 15 1015.2 0 25.1 29.1 48.5 127.6 128.3 443.6
08/05 04:20 18.1 75 11.59 13.6 9 13 1015.2 0 25.7 29.6 49.8 131.0 132.6 458.5
08/05 04:10 18.2 75 11.66 13.7 9 11 1015.1 0 25.9 29.7 50.0 131.6 133.4 461.3
08/05 04:00 18.6 76 12.09 14.3 11 15 1015.1 0 26.8 30.3 51.5 135.8 138.6 479.7
08/05 03:50 18.6 78 12.41 14.8 9 11 1015.2 0 27.4 30.8 52.9 139.5 143.1 495.3
08/05 03:40 18.6 83 13.21 15.6 7 9 1015.2 0 29.2 32.2 56.4 148.7 154.5 535.1
08/05 03:30 18.8 86 13.85 16.4 9 11 1015.2 0 30.5 33.3 59.1 155.9 163.4 566.2
08/05 03:20 19 88 14.34 16.9 9 11 1015.1 0 31.5 34.1 61.1 161.4 170.2 589.8
08/05 03:10 19 93 15.15 17.8 6 7 1015.1 0 33.3 35.6 64.8 171.3 182.3 632.2
08/05 03:00 19.1 93 15.24 17.9 7 9 1015.1 0 33.5 35.7 65.2 172.1 183.5 636.1
08/05 02:50 19.1 93 15.24 17.9 7 7 1015.1 0 33.5 35.7 65.2 172.1 183.5 636.1
08/05 02:40 19.2 93 15.33 18 6 7 1015.1 0 33.7 35.8 65.5 173.0 184.6 640.1
08/05 02:30 19.2 92 15.17 17.9 6 7 1015.2 0 33.3 35.5 64.8 171.1 182.2 631.6
08/05 02:20 19.4 92 15.35 18 4 4 1015.2 0 33.7 35.8 65.4 172.8 184.4 639.5
08/05 02:10 19.5 91 15.27 18 6 6 1015.2 0 33.5 35.6 65.0 171.6 183.0 634.4
08/05 02:00 19.7 91 15.45 18.2 6 7 1015.3 0 33.9 35.8 65.7 173.4 185.2 642.3
08/05 01:50 19.9 90 15.46 18.3 6 6 1015.2 0 33.9 35.8 65.5 173.1 184.9 641.1
08/05 01:40 20.1 90 15.64 18.4 7 7 1015.3 0 34.2 36.0 66.2 174.8 187.1 648.9
08/05 01:30 20.1 91 15.82 18.6 7 9 1015.3 0 34.6 36.4 67.0 177.1 189.8 658.5
08/05 01:20 20 90 15.55 18.4 6 6 1015.5 0 34.1 35.9 65.9 174.0 186.0 645.1
08/05 01:10 20.1 90 15.64 18.5 6 7 1015.6 0 34.2 36.0 66.2 174.9 187.1 649.1
08/05 01:00 20.1 91 15.82 18.6 6 7 1015.5 0 34.6 36.4 67.0 177.1 189.9 658.5
08/05 00:50 20.3 90 15.83 18.6 7 7 1015.6 0 34.6 36.3 66.9 176.8 189.5 657.4
08/05 00:40 20.3 90 15.83 18.7 7 9 1015.6 0 34.6 36.3 66.9 176.8 189.5 657.4
08/05 00:30 20.3 91 16 18.8 7 9 1015.7 0 35.0 36.6 67.7 178.9 192.1 666.5
08/05 00:20 19.9 90 15.46 18.3 6 7 1015.7 0 33.9 35.8 65.6 173.1 184.9 641.3
08/05 00:10 20 90 15.55 18.3 6 7 1015.7 0 34.1 35.9 65.9 174.0 186.0 645.2
08/05 00:00 20.1 90 15.64 18.4 6 7 1015.7 0 34.2 36.0 66.2 174.9 187.2 649.1
07/05 23:50 20.2 89 15.56 18.3 6 7 1015.8 0 34.1 35.9 65.8 173.7 185.7 644.1
07/05 23:40 20.3 88 15.48 18.2 7 7 1015.9 0 33.9 35.7 65.3 172.5 184.3 639.1
07/05 23:30 20.3 88 15.48 18.2 6 7 1015.9 0 33.9 35.7 65.3 172.5 184.3 639.1
07/05 23:20 20.5 85 15.12 18 6 7 1015.8 0 33.1 34.9 63.5 167.7 178.4 618.6
07/05 23:10 20.7 84 15.12 18 6 7 1015.9 0 33.1 34.8 63.3 167.2 177.9 617.0
07/05 23:00 20.8 86 15.57 18.4 7 9 1015.9 0 34.0 35.6 65.3 172.5 184.4 639.6
07/05 22:50 20.7 84 15.12 18 7 9 1015.9 0 33.1 34.8 63.3 167.2 177.9 617.0
07/05 22:40 20.9 84 15.3 18.1 7 7 1015.9 0 33.4 35.1 64.0 169.0 180.1 624.7
07/05 22:30 20.9 83 15.12 17.9 7 9 1016 0 33.1 34.8 63.2 166.8 177.5 615.5
07/05 22:20 21.1 81 14.92 17.7 6 7 1016 0 32.6 34.3 62.1 164.0 174.1 603.6
07/05 22:10 21.3 79 14.72 17.5 4 6 1016 0 32.2 33.9 61.1 161.2 170.7 591.9
07/05 22:00 21.5 77 14.52 17.3 6 11 1016.1 0 31.7 33.5 60.0 158.4 167.4 580.3
07/05 21:50 21.8 75 14.39 17.3 7 9 1016 0 31.4 33.1 59.2 156.3 164.8 571.5
07/05 21:40 21.9 73 14.09 16.8 4 6 1016 0 30.8 32.5 57.8 152.6 160.3 555.9
07/05 21:30 22.3 71 14.02 16.8 6 9 1016 0 30.6 32.3 57.2 151.0 158.5 549.6
07/05 21:20 22.6 68 13.66 16.4 7 7 1015.9 0 29.8 31.5 55.5 146.4 152.9 530.0
07/05 21:10 23 64 13.15 16 7 9 1015.8 0 28.7 30.5 53.1 139.9 145.1 502.9
07/05 21:00 23.1 63 13.02 15.7 11 17 1015.7 0 28.4 30.3 52.5 138.3 143.2 496.1
07/05 20:50 22.4 61 12.11 14.5 7 11 1015.7 0 26.6 29.0 49.2 129.6 132.3 458.0
07/05 20:40 22.6 60 12.05 14.4 6 7 1015.3 0 26.4 28.8 48.8 128.6 131.1 453.9
07/05 20:30 22.6 61 12.25 14.7 9 11 1015.2 0 26.8 29.2 49.6 130.8 133.7 463.1
07/05 20:20 22.6 61 12.25 14.7 9 9 1015.1 0 26.8 29.2 49.6 130.8 133.7 463.1
07/05 20:10 22.7 60 12.12 14.5 6 7 1015 0 26.6 28.9 49.0 129.2 131.8 456.5

Last Refresh: 08-May-2026 12:09:35

Bureau of Meteorology